Time;durP1;ratioP1;P1;durP2;ratioP2;P2;SDS_P1;SDS_P2;PMS_P1;PMS_P2;Temp;Humidity;BMP_temperature;BMP_pressure;BME280_temperature;BME280_humidity;BME280_pressure;Samples;Min_cycle;Max_cycle;Signal;HPM_P1;HPM_P2
2023/03/10 00:01:25;;;;;;;4.53;1.67;;;11.00;99.90;;;;;;5054593;28;20253;-74
2023/03/10 00:03:52;;;;;;;2.33;1.63;;;11.00;99.90;;;;;;5076528;28;20187;-74
2023/03/10 00:06:21;;;;;;;2.47;1.63;;;11.00;99.90;;;;;;5058451;28;20176;-74
2023/03/10 00:08:47;;;;;;;1.87;1.60;;;11.00;99.90;;;;;;5076144;28;20225;-74
2023/03/10 00:11:13;;;;;;;3.67;2.00;;;11.10;99.90;;;;;;5076141;28;20192;-74
2023/03/10 00:13:40;;;;;;;3.63;1.80;;;11.10;99.90;;;;;;5075887;28;20220;-74
2023/03/10 00:16:06;;;;;;;2.40;1.50;;;11.10;99.90;;;;;;5076229;28;20705;-75
2023/03/10 00:18:33;;;;;;;3.30;1.47;;;11.00;99.90;;;;;;5076203;28;20169;-74
2023/03/10 00:20:58;;;;;;;3.43;2.30;;;11.00;99.90;;;;;;5076211;28;20242;-74
2023/03/10 00:23:24;;;;;;;3.53;1.93;;;11.00;99.90;;;;;;5075816;28;20623;-73
2023/03/10 00:25:58;;;;;;;3.97;2.00;;;11.00;99.90;;;;;;5076168;28;20667;-73
2023/03/10 00:28:24;;;;;;;3.47;2.30;;;11.10;99.90;;;;;;5058055;28;20585;-74
2023/03/10 00:31:02;;;;;;;3.17;2.07;;;11.10;99.90;;;;;;5075830;28;20164;-74
2023/03/10 00:33:30;;;;;;;3.57;2.30;;;11.10;99.90;;;;;;5058050;28;20189;-75
2023/03/10 00:36:12;;;;;;;4.50;2.20;;;11.10;99.90;;;;;;5075992;28;20783;-74
2023/03/10 00:38:38;;;;;;;4.20;2.30;;;11.10;99.90;;;;;;5075417;28;20210;-74
2023/03/10 00:41:07;;;;;;;4.07;2.30;;;11.10;99.90;;;;;;5057757;28;20578;-74
2023/03/10 00:43:34;;;;;;;5.50;2.67;;;11.20;99.90;;;;;;5075788;28;20169;-73
2023/03/10 00:46:01;;;;;;;5.10;2.57;;;11.30;99.90;;;;;;5075694;28;20165;-75
2023/03/10 00:48:27;;;;;;;5.00;2.70;;;11.30;99.90;;;;;;5075710;28;20169;-75
2023/03/10 00:50:54;;;;;;;6.20;2.90;;;11.30;99.90;;;;;;5075620;28;20160;-74
2023/03/10 00:53:20;;;;;;;3.90;3.20;;;11.30;99.90;;;;;;5075156;28;20176;-74
2023/03/10 00:56:07;;;;;;;5.93;3.20;;;11.20;99.90;;;;;;5075727;28;20169;-74
2023/03/10 00:58:33;;;;;;;5.23;3.00;;;11.20;99.90;;;;;;5075718;28;20185;-74
2023/03/10 01:01:00;;;;;;;9.80;3.70;;;11.20;99.90;;;;;;5075333;28;20164;-73
2023/03/10 01:03:27;;;;;;;6.60;3.40;;;11.20;99.90;;;;;;5075527;28;20191;-73
2023/03/10 01:05:53;;;;;;;5.97;3.00;;;11.30;99.90;;;;;;5075400;28;20184;-74
2023/03/10 01:08:19;;;;;;;6.37;2.87;;;11.30;99.90;;;;;;5056958;28;20254;-73
2023/03/10 01:10:46;;;;;;;5.60;3.23;;;11.30;99.90;;;;;;5075135;28;20188;-74
2023/03/10 01:13:13;;;;;;;7.70;2.83;;;11.30;99.90;;;;;;5074397;28;20220;-73
2023/03/10 01:15:39;;;;;;;7.13;2.83;;;11.20;99.90;;;;;;5056898;28;20168;-74
2023/03/10 01:18:06;;;;;;;7.73;2.90;;;11.30;99.90;;;;;;5075072;28;20239;-73
2023/03/10 01:20:32;;;;;;;8.93;2.50;;;11.30;99.90;;;;;;5074867;28;20243;-74
2023/03/10 01:22:58;;;;;;;10.60;3.17;;;11.30;99.90;;;;;;5074654;28;20639;-74
2023/03/10 01:25:24;;;;;;;5.90;2.70;;;11.30;99.90;;;;;;5075062;28;20199;-74
2023/03/10 01:27:49;;;;;;;7.37;2.47;;;11.30;99.90;;;;;;5074926;28;20563;-74
2023/03/10 01:30:15;;;;;;;4.63;1.80;;;11.30;99.90;;;;;;5074677;28;20172;-73
2023/03/10 01:32:41;;;;;;;4.00;2.20;;;11.30;99.90;;;;;;5074668;28;20176;-74
2023/03/10 01:35:07;;;;;;;10.47;2.90;;;11.30;99.90;;;;;;5074662;28;20169;-74
2023/03/10 01:37:33;;;;;;;6.40;2.57;;;11.30;99.90;;;;;;5074124;28;20659;-74
2023/03/10 01:40:00;;;;;;;4.27;1.80;;;11.30;99.90;;;;;;5074503;28;20172;-74
2023/03/10 01:42:26;;;;;;;6.10;2.17;;;11.20;99.90;;;;;;5074824;28;20215;-75
2023/03/10 01:45:21;;;;;;;9.43;2.27;;;11.30;99.90;;;;;;5074271;28;20188;-74
2023/03/10 01:47:46;;;;;;;9.97;2.57;;;11.20;99.90;;;;;;4986509;28;20565;-75
2023/03/10 01:50:16;;;;;;;8.03;2.03;;;11.20;99.90;;;;;;5056164;28;20173;-74
2023/03/10 01:52:51;;;;;;;8.57;2.33;;;11.20;99.90;;;;;;5074461;28;20203;-73
2023/03/10 01:55:23;;;;;;;10.13;2.47;;;11.30;99.90;;;;;;5074092;28;20178;-73
2023/03/10 01:57:52;;;;;;;7.60;2.30;;;11.20;99.90;;;;;;5074244;28;20264;-73
2023/03/10 02:00:19;;;;;;;8.63;2.00;;;11.30;99.90;;;;;;5074146;28;20165;-74
2023/03/10 02:03:08;;;;;;;7.13;2.17;;;11.30;99.90;;;;;;5074209;28;20631;-74
2023/03/10 02:05:37;;;;;;;10.00;2.57;;;11.30;99.90;;;;;;5073730;28;20631;-74
2023/03/10 02:08:04;;;;;;;8.73;2.30;;;11.30;99.90;;;;;;5056146;28;20252;-74
2023/03/10 02:10:30;;;;;;;7.37;2.60;;;11.30;99.90;;;;;;5073861;28;20203;-74
2023/03/10 02:12:56;;;;;;;5.53;2.30;;;11.30;99.90;;;;;;5073757;28;20243;-75
2023/03/10 02:15:22;;;;;;;7.23;2.37;;;11.30;99.90;;;;;;5055865;28;20624;-74
2023/03/10 02:17:50;;;;;;;6.87;2.60;;;11.30;99.90;;;;;;5073777;28;20212;-74
2023/03/10 02:20:39;;;;;;;8.60;2.17;;;11.30;99.90;;;;;;5073374;28;20213;-74
2023/03/10 02:23:06;;;;;;;7.77;2.40;;;11.30;99.90;;;;;;5073953;28;20175;-74
2023/03/10 02:25:35;;;;;;;9.83;2.43;;;11.20;99.90;;;;;;5073552;28;20295;-74
2023/03/10 02:28:01;;;;;;;10.17;2.33;;;11.20;99.90;;;;;;5073687;28;20167;-74
2023/03/10 02:30:31;;;;;;;8.17;2.00;;;11.20;99.90;;;;;;5073490;28;20519;-74
2023/03/10 02:33:02;;;;;;;7.57;2.30;;;11.20;99.90;;;;;;5073617;28;20165;-74
2023/03/10 02:35:28;;;;;;;7.97;2.63;;;11.20;99.90;;;;;;5055258;28;20165;-74
2023/03/10 02:37:53;;;;;;;13.17;2.53;;;11.30;99.90;;;;;;5073533;28;20210;-74
2023/03/10 02:40:36;;;;;;;10.27;2.90;;;11.20;99.90;;;;;;5073445;28;20172;-73
2023/03/10 02:43:15;;;;;;;10.13;2.63;;;11.30;99.90;;;;;;5073305;28;20218;-73
2023/03/10 02:45:43;;;;;;;6.80;2.47;;;11.30;99.90;;;;;;5073503;28;20156;-74
2023/03/10 02:48:12;;;;;;;11.73;3.20;;;11.30;99.90;;;;;;5073189;28;20191;-74
2023/03/10 02:50:40;;;;;;;9.83;3.30;;;11.40;99.90;;;;;;5055407;28;20599;-74
2023/03/10 02:53:12;;;;;;;11.87;3.17;;;11.30;99.90;;;;;;5073293;28;20204;-74
2023/03/10 02:55:37;;;;;;;13.70;3.30;;;11.30;99.90;;;;;;5073273;28;20165;-74
2023/03/10 02:58:03;;;;;;;9.87;2.70;;;11.40;99.90;;;;;;5073183;28;20287;-73
2023/03/10 03:00:29;;;;;;;11.83;3.20;;;11.40;99.90;;;;;;5073462;28;20506;-73
2023/03/10 03:02:55;;;;;;;12.57;3.43;;;11.40;99.90;;;;;;5073186;28;20226;-73
2023/03/10 03:05:20;;;;;;;12.53;3.40;;;11.40;99.90;;;;;;5073170;28;20192;-73
2023/03/10 03:07:46;;;;;;;15.00;4.23;;;11.50;99.90;;;;;;5073279;28;20164;-73
2023/03/10 03:10:12;;;;;;;12.73;3.60;;;11.50;99.90;;;;;;5072832;28;20635;-73
2023/03/10 03:12:37;;;;;;;8.30;3.20;;;11.40;99.90;;;;;;5072734;28;20622;-73
2023/03/10 03:15:03;;;;;;;14.47;3.60;;;11.40;99.90;;;;;;5073554;28;20597;-72
2023/03/10 03:17:29;;;;;;;8.87;3.40;;;11.40;99.90;;;;;;5072771;28;20204;-72
2023/03/10 03:19:55;;;;;;;11.40;3.67;;;11.30;99.90;;;;;;5073095;28;20165;-72
2023/03/10 03:22:21;;;;;;;14.07;3.43;;;11.30;99.90;;;;;;5073036;28;20221;-72
2023/03/10 03:24:46;;;;;;;13.30;3.40;;;11.30;99.90;;;;;;5072771;28;20294;-72
2023/03/10 03:27:12;;;;;;;10.27;3.20;;;11.40;99.90;;;;;;5055061;28;20672;-72
2023/03/10 03:29:37;;;;;;;12.07;3.20;;;11.40;99.90;;;;;;5072797;28;20202;-73
2023/03/10 03:32:03;;;;;;;14.67;3.17;;;11.40;99.90;;;;;;5072756;28;20247;-73
2023/03/10 03:34:29;;;;;;;11.60;3.07;;;11.30;99.90;;;;;;5072997;28;20165;-72
2023/03/10 03:36:55;;;;;;;11.07;3.80;;;11.30;99.90;;;;;;5073806;28;20249;-72
2023/03/10 03:39:20;;;;;;;11.67;2.93;;;11.30;99.90;;;;;;5076828;28;20172;-73
2023/03/10 03:41:47;;;;;;;12.17;2.90;;;11.20;99.90;;;;;;5058729;28;20256;-74
2023/03/10 03:44:13;;;;;;;8.57;2.63;;;11.20;99.90;;;;;;5076805;28;20184;-74
2023/03/10 03:46:39;;;;;;;10.03;2.97;;;11.30;99.90;;;;;;5076482;28;20589;-71
2023/03/10 03:49:04;;;;;;;12.47;2.90;;;11.30;99.90;;;;;;5076830;28;20173;-73
2023/03/10 03:51:30;;;;;;;8.10;2.27;;;11.30;99.90;;;;;;5076681;28;20172;-72
2023/03/10 03:53:55;;;;;;;7.37;1.90;;;11.20;99.90;;;;;;5076428;28;20257;-73
2023/03/10 03:56:21;;;;;;;10.57;2.63;;;11.20;99.90;;;;;;5076605;28;20172;-73
2023/03/10 03:58:46;;;;;;;6.00;2.20;;;11.20;99.90;;;;;;5076656;28;20169;-72
2023/03/10 04:01:12;;;;;;;9.13;2.40;;;11.10;99.90;;;;;;5076030;28;20213;-72
2023/03/10 04:03:38;;;;;;;6.33;1.83;;;11.10;99.90;;;;;;5076602;28;20176;-72
2023/03/10 04:06:06;;;;;;;6.17;1.73;;;11.10;99.90;;;;;;5076574;28;20203;-72
2023/03/10 04:08:31;;;;;;;3.47;1.50;;;11.10;99.90;;;;;;5076183;28;20165;-72
2023/03/10 04:10:57;;;;;;;6.77;1.90;;;11.10;99.90;;;;;;5076017;28;20566;-73
2023/03/10 04:13:23;;;;;;;6.47;1.73;;;11.00;99.90;;;;;;5076098;28;20223;-73
2023/03/10 04:15:57;;;;;;;7.60;2.03;;;11.00;99.90;;;;;;5076117;28;20196;-73
2023/03/10 04:18:23;;;;;;;4.87;1.80;;;11.10;99.90;;;;;;5075879;28;20206;-73
2023/03/10 04:20:49;;;;;;;7.43;1.83;;;11.00;99.90;;;;;;5075991;28;20234;-72
2023/03/10 04:23:15;;;;;;;8.33;1.97;;;11.00;99.90;;;;;;5075903;28;20169;-73
2023/03/10 04:25:42;;;;;;;7.83;1.97;;;11.00;99.90;;;;;;5075934;28;20176;-73
2023/03/10 04:28:08;;;;;;;7.27;2.13;;;10.90;99.90;;;;;;5057944;28;20204;-73
2023/03/10 04:30:34;;;;;;;4.53;1.87;;;10.90;99.90;;;;;;5075618;28;20188;-72
2023/03/10 04:33:00;;;;;;;7.27;1.70;;;10.80;99.90;;;;;;5076032;28;20218;-72
2023/03/10 04:35:27;;;;;;;5.13;1.70;;;10.80;99.90;;;;;;5075705;28;20643;-72
2023/03/10 04:37:52;;;;;;;6.30;1.73;;;10.70;99.90;;;;;;5075854;28;20687;-73
2023/03/10 04:40:18;;;;;;;5.83;1.80;;;10.70;99.90;;;;;;5075563;28;20172;-73
2023/03/10 04:42:44;;;;;;;10.90;2.30;;;10.60;99.90;;;;;;5075621;28;20172;-71
2023/03/10 04:45:11;;;;;;;6.00;1.70;;;10.60;99.90;;;;;;5075433;28;20511;-73
2023/03/10 04:47:37;;;;;;;4.13;1.67;;;10.60;99.90;;;;;;5075591;28;20205;-72
2023/03/10 04:50:03;;;;;;;9.73;2.33;;;10.50;99.90;;;;;;5056241;28;20169;-72
2023/03/10 04:52:29;;;;;;;4.13;1.40;;;10.50;99.90;;;;;;5057661;28;20530;-73
2023/03/10 04:54:54;;;;;;;7.10;1.87;;;10.60;99.90;;;;;;5075502;28;20169;-73
2023/03/10 04:57:20;;;;;;;6.23;2.00;;;10.60;99.90;;;;;;5074987;28;20254;-72
2023/03/10 04:59:45;;;;;;;7.40;2.17;;;10.60;99.90;;;;;;5075082;28;20165;-73
2023/03/10 05:02:11;;;;;;;5.07;1.80;;;10.60;99.90;;;;;;5075392;28;20207;-73
2023/03/10 05:04:38;;;;;;;5.83;2.20;;;10.60;99.90;;;;;;5057346;28;20169;-73
2023/03/10 05:07:03;;;;;;;3.77;1.87;;;10.70;99.90;;;;;;5075088;28;20263;-73
2023/03/10 05:09:29;;;;;;;4.47;1.93;;;10.70;99.90;;;;;;5074771;28;20690;-71
2023/03/10 05:11:55;;;;;;;9.13;2.17;;;10.70;99.90;;;;;;5057370;28;20524;-72
2023/03/10 05:14:20;;;;;;;7.93;2.10;;;10.70;99.90;;;;;;5074590;28;20265;-73
2023/03/10 05:16:47;;;;;;;9.93;2.53;;;10.70;99.90;;;;;;5057164;28;20678;-73
2023/03/10 05:19:13;;;;;;;6.47;1.87;;;10.70;99.90;;;;;;5074943;28;20160;-73
2023/03/10 05:21:38;;;;;;;7.03;2.03;;;10.70;99.90;;;;;;5074779;28;20263;-73
2023/03/10 05:24:04;;;;;;;8.33;2.27;;;10.70;99.90;;;;;;5074860;28;20522;-73
2023/03/10 05:26:30;;;;;;;8.73;2.43;;;10.70;99.90;;;;;;5074716;28;20207;-72
2023/03/10 05:28:56;;;;;;;6.60;2.33;;;10.60;99.90;;;;;;5074445;28;20171;-73
2023/03/10 05:31:25;;;;;;;8.63;2.27;;;10.70;99.90;;;;;;5074458;28;20252;-73
2023/03/10 05:33:52;;;;;;;10.63;2.70;;;10.60;99.90;;;;;;5074294;28;20157;-72
2023/03/10 05:36:17;;;;;;;8.27;2.50;;;10.60;99.90;;;;;;5074491;28;20530;-72
2023/03/10 05:38:43;;;;;;;8.70;2.40;;;10.60;99.90;;;;;;5074420;28;20175;-72
2023/03/10 05:41:10;;;;;;;7.93;2.63;;;10.60;99.90;;;;;;5073757;28;20168;-71
2023/03/10 05:43:37;;;;;;;8.07;2.40;;;10.60;99.90;;;;;;5073826;28;20393;-73
2023/03/10 05:46:03;;;;;;;7.47;2.33;;;10.60;99.90;;;;;;5074493;28;20261;-72
2023/03/10 05:48:29;;;;;;;11.63;2.73;;;10.60;99.90;;;;;;5074130;28;20173;-72
2023/03/10 05:51:00;;;;;;;13.87;3.40;;;10.60;99.90;;;;;;5074142;28;20172;-72
2023/03/10 05:53:26;;;;;;;6.80;2.40;;;10.70;99.90;;;;;;5074136;28;20204;-72
2023/03/10 05:55:53;;;;;;;8.27;2.73;;;10.60;99.90;;;;;;5074182;28;20157;-72
2023/03/10 05:58:18;;;;;;;10.10;2.50;;;10.70;99.90;;;;;;5073210;28;20204;-72
2023/03/10 06:00:44;;;;;;;11.40;2.57;;;10.70;99.90;;;;;;5073109;28;20167;-72
2023/03/10 06:03:10;;;;;;;12.53;3.07;;;10.60;99.90;;;;;;5073748;28;20176;-73
2023/03/10 06:05:35;;;;;;;9.50;2.60;;;10.60;99.90;;;;;;5056676;28;20721;-73
2023/03/10 06:08:01;;;;;;;11.43;2.60;;;10.50;99.90;;;;;;5055903;28;20199;-73
2023/03/10 06:10:27;;;;;;;10.83;2.53;;;10.40;99.90;;;;;;5073728;28;20200;-72
2023/03/10 06:12:54;;;;;;;10.73;2.53;;;10.40;99.90;;;;;;5034982;28;20221;-72
2023/03/10 06:15:20;;;;;;;10.37;2.90;;;10.30;99.90;;;;;;5052166;28;20168;-72
2023/03/10 06:17:45;;;;;;;10.47;2.60;;;10.30;99.90;;;;;;5053466;28;20208;-72
2023/03/10 06:20:11;;;;;;;7.13;2.70;;;10.30;99.90;;;;;;5053415;28;20624;-73
2023/03/10 06:22:37;;;;;;;9.30;2.70;;;10.30;99.90;;;;;;5052382;28;20188;-74
2023/03/10 06:25:03;;;;;;;8.80;2.70;;;10.30;99.90;;;;;;5053430;28;20260;-73
2023/03/10 06:27:30;;;;;;;14.23;3.33;;;10.40;99.90;;;;;;5053184;28;20169;-74
2023/03/10 06:29:55;;;;;;;7.87;2.60;;;10.40;99.90;;;;;;5053412;28;20352;-72
2023/03/10 06:32:21;;;;;;;9.10;2.53;;;10.50;99.90;;;;;;5052776;28;20319;-73
2023/03/10 06:34:47;;;;;;;6.00;2.40;;;10.50;99.90;;;;;;5053084;28;20193;-72
2023/03/10 06:37:14;;;;;;;10.43;2.83;;;10.60;99.90;;;;;;5053036;28;20268;-74
2023/03/10 06:39:40;;;;;;;12.90;2.97;;;10.60;99.90;;;;;;5053186;28;20200;-73
2023/03/10 06:42:07;;;;;;;9.53;3.00;;;10.70;99.90;;;;;;5052797;28;20177;-72
2023/03/10 06:44:33;;;;;;;9.63;2.60;;;10.80;99.90;;;;;;5053742;28;20211;-72
2023/03/10 06:46:59;;;;;;;9.73;2.53;;;11.00;99.90;;;;;;5052997;28;20180;-73
2023/03/10 06:49:29;;;;;;;13.83;2.73;;;11.10;99.90;;;;;;5052775;28;20165;-73
2023/03/10 06:51:55;;;;;;;9.43;2.50;;;11.30;99.90;;;;;;5052858;28;20181;-73
2023/03/10 06:54:21;;;;;;;10.30;2.70;;;11.30;99.90;;;;;;5052404;28;20252;-74
2023/03/10 06:56:48;;;;;;;7.30;2.63;;;11.40;99.90;;;;;;5052232;28;20204;-73
2023/03/10 06:59:13;;;;;;;9.60;2.43;;;11.50;99.90;;;;;;5053188;28;20170;-73
2023/03/10 07:01:39;;;;;;;14.50;2.93;;;11.70;99.90;;;;;;5052612;28;20205;-73
2023/03/10 07:04:05;;;;;;;8.87;2.57;;;11.80;99.90;;;;;;5053144;28;20523;-74
2023/03/10 07:06:31;;;;;;;14.57;2.90;;;12.00;99.90;;;;;;5052673;28;20667;-73
2023/03/10 07:08:57;;;;;;;9.17;3.00;;;12.00;99.90;;;;;;5052369;28;20165;-74
2023/03/10 07:11:24;;;;;;;12.17;2.93;;;12.00;99.90;;;;;;5051134;28;20549;-73
2023/03/10 07:13:49;;;;;;;9.93;2.83;;;12.00;99.90;;;;;;5064934;28;20224;-72
2023/03/10 07:16:15;;;;;;;12.43;2.93;;;11.90;99.90;;;;;;5073019;28;20275;-73
2023/03/10 07:18:41;;;;;;;14.50;3.53;;;11.60;99.90;;;;;;5072909;28;20689;-73
2023/03/10 07:21:11;;;;;;;12.63;3.30;;;11.50;99.90;;;;;;5072974;28;20172;-74
2023/03/10 07:23:37;;;;;;;13.13;3.43;;;11.50;99.90;;;;;;5071639;28;20173;-74
2023/03/10 07:26:06;;;;;;;10.03;2.87;;;11.50;99.90;;;;;;5072418;28;20241;-74
2023/03/10 07:28:33;;;;;;;12.97;3.47;;;11.40;99.90;;;;;;5072437;28;20160;-74
2023/03/10 07:31:06;;;;;;;9.60;3.00;;;11.30;99.90;;;;;;5072459;28;20183;-73
2023/03/10 07:33:32;;;;;;;11.57;3.13;;;11.20;99.90;;;;;;5072877;28;20176;-72
2023/03/10 07:35:57;;;;;;;12.70;2.90;;;11.10;99.90;;;;;;5072689;28;20175;-73
2023/03/10 07:38:23;;;;;;;12.23;3.47;;;11.00;99.90;;;;;;5071776;28;20243;-74
2023/03/10 07:40:49;;;;;;;13.93;3.60;;;10.80;99.90;;;;;;5072545;28;20161;-74
2023/03/10 07:43:15;;;;;;;10.17;3.33;;;10.70;99.90;;;;;;5053647;28;20187;-74
2023/03/10 07:45:40;;;;;;;10.63;3.93;;;10.70;99.90;;;;;;5072818;28;20654;-73
2023/03/10 07:48:06;;;;;;;12.80;4.10;;;10.60;99.90;;;;;;5072490;28;20628;-74
2023/03/10 07:50:32;;;;;;;11.00;3.63;;;10.50;99.90;;;;;;5072238;28;20168;-74
2023/03/10 07:52:57;;;;;;;13.30;3.93;;;10.40;99.90;;;;;;5071358;28;20180;-74
2023/03/10 07:55:23;;;;;;;9.23;3.80;;;10.30;99.90;;;;;;5053497;28;20169;-74
2023/03/10 07:57:49;;;;;;;12.33;3.67;;;10.30;99.90;;;;;;5071870;28;20547;-73
2023/03/10 08:00:15;;;;;;;11.83;4.87;;;10.30;99.90;;;;;;5071808;28;20192;-75
2023/03/10 08:02:41;;;;;;;10.53;3.97;;;10.30;99.90;;;;;;5054501;28;20188;-75
2023/03/10 08:05:08;;;;;;;9.60;3.90;;;10.30;99.90;;;;;;5072140;28;20168;-73
2023/03/10 08:07:33;;;;;;;10.00;3.20;;;10.30;99.90;;;;;;5071550;28;20176;-75
2023/03/10 08:09:59;;;;;;;11.67;3.83;;;10.30;99.90;;;;;;5071886;28;20200;-75
2023/03/10 08:12:25;;;;;;;8.23;3.07;;;10.40;99.90;;;;;;5071785;28;20169;-76
2023/03/10 08:14:51;;;;;;;5.83;2.80;;;10.50;99.90;;;;;;5072504;28;20173;-74
2023/03/10 08:17:17;;;;;;;7.93;3.00;;;10.50;99.90;;;;;;5071766;28;20212;-74
2023/03/10 08:19:43;;;;;;;6.60;2.70;;;10.40;99.90;;;;;;5072188;28;20693;-74
2023/03/10 08:22:09;;;;;;;9.57;2.73;;;10.40;99.90;;;;;;5053707;28;20632;-74
2023/03/10 08:24:36;;;;;;;10.23;2.80;;;10.40;99.90;;;;;;5075152;28;20165;-73
2023/03/10 08:27:02;;;;;;;7.93;2.60;;;10.40;99.90;;;;;;5075648;28;20177;-75
2023/03/10 08:29:28;;;;;;;9.07;2.20;;;10.40;99.90;;;;;;5057531;28;20535;-73
2023/03/10 08:31:53;;;;;;;6.63;2.53;;;10.30;99.90;;;;;;5057934;28;20180;-74
2023/03/10 08:34:19;;;;;;;9.80;2.83;;;10.30;99.90;;;;;;5074920;28;20258;-75
2023/03/10 08:36:45;;;;;;;7.20;2.70;;;10.30;99.90;;;;;;5075255;28;20200;-75
2023/03/10 08:39:11;;;;;;;8.37;2.60;;;10.20;99.90;;;;;;5075251;28;20172;-75
2023/03/10 08:41:45;;;;;;;4.90;2.23;;;10.20;99.90;;;;;;5075485;28;20165;-75
2023/03/10 08:44:14;;;;;;;8.67;2.50;;;10.10;99.90;;;;;;5058475;28;20173;-74
2023/03/10 08:46:41;;;;;;;4.93;2.43;;;10.10;99.90;;;;;;5057462;28;20169;-72
2023/03/10 08:49:07;;;;;;;5.70;2.47;;;10.10;99.90;;;;;;5074678;28;20180;-74
2023/03/10 08:51:33;;;;;;;5.47;2.17;;;10.10;99.90;;;;;;5057044;28;20177;-75
2023/03/10 08:53:59;;;;;;;3.43;1.70;;;10.10;99.90;;;;;;5057037;28;20183;-74
2023/03/10 08:56:25;;;;;;;5.17;2.07;;;10.00;99.90;;;;;;5075279;28;20164;-74
2023/03/10 08:58:59;;;;;;;5.17;2.00;;;10.10;99.90;;;;;;5075006;28;20255;-75
2023/03/10 09:01:28;;;;;;;4.43;2.20;;;10.10;99.90;;;;;;5074974;28;20161;-74
2023/03/10 09:03:54;;;;;;;3.30;1.90;;;10.20;99.90;;;;;;5074553;28;20170;-74
2023/03/10 09:06:19;;;;;;;5.50;2.53;;;10.30;99.90;;;;;;5074334;28;20184;-74
2023/03/10 09:08:47;;;;;;;5.30;2.40;;;10.30;99.90;;;;;;5075032;28;20642;-75
2023/03/10 09:11:25;;;;;;;4.47;2.50;;;10.40;99.90;;;;;;5074891;28;20184;-74
2023/03/10 09:13:51;;;;;;;2.80;1.83;;;10.40;99.90;;;;;;5074174;28;20529;-74
2023/03/10 09:16:17;;;;;;;5.00;2.30;;;10.50;99.90;;;;;;5074513;28;20184;-74
2023/03/10 09:18:43;;;;;;;4.40;2.17;;;10.40;99.90;;;;;;5056571;28;20291;-75
2023/03/10 09:21:11;;;;;;;4.87;2.10;;;10.50;99.90;;;;;;5074487;28;20191;-74
2023/03/10 09:23:40;;;;;;;4.87;2.50;;;10.40;99.90;;;;;;5074716;28;20325;-74
2023/03/10 09:26:05;;;;;;;6.17;2.80;;;10.30;99.90;;;;;;5074598;28;20172;-74
2023/03/10 09:28:31;;;;;;;5.20;2.40;;;10.40;99.90;;;;;;5074374;28;20172;-74
2023/03/10 09:30:57;;;;;;;3.37;2.47;;;10.40;99.90;;;;;;5074319;28;20176;-74
2023/03/10 09:33:22;;;;;;;6.13;2.60;;;10.40;99.90;;;;;;5074077;28;20191;-75
2023/03/10 09:35:49;;;;;;;3.40;2.50;;;10.50;99.90;;;;;;5072782;28;20181;-74
2023/03/10 09:38:16;;;;;;;4.17;2.60;;;10.50;99.90;;;;;;5074541;28;20200;-73
2023/03/10 09:40:46;;;;;;;5.97;2.60;;;10.50;99.90;;;;;;5074330;28;20164;-74
2023/03/10 09:43:18;;;;;;;5.40;2.80;;;10.50;99.90;;;;;;5073900;28;20165;-71
2023/03/10 09:46:13;;;;;;;4.77;3.00;;;10.60;99.90;;;;;;5074020;28;20176;-75
2023/03/10 09:48:53;;;;;;;3.20;2.90;;;10.50;99.90;;;;;;5018457;28;20176;-73
2023/03/10 09:51:24;;;;;;;6.40;3.03;;;10.50;99.90;;;;;;5074254;28;20195;-74
2023/03/10 09:53:59;;;;;;;2.97;2.67;;;10.50;99.90;;;;;;5073995;28;20238;-74
2023/03/10 09:56:32;;;;;;;3.97;2.70;;;10.50;99.90;;;;;;5073702;28;20164;-74
2023/03/10 09:59:10;;;;;;;4.93;2.90;;;10.50;99.90;;;;;;5073876;28;20167;-74
2023/03/10 10:01:38;;;;;;;4.63;2.80;;;10.50;99.90;;;;;;5055078;28;20237;-74
2023/03/10 10:04:13;;;;;;;4.93;2.80;;;10.50;99.90;;;;;;5055527;28;20631;-74
2023/03/10 10:06:44;;;;;;;2.87;2.53;;;10.60;99.90;;;;;;5055960;28;20176;-74
2023/03/10 10:09:13;;;;;;;4.47;3.17;;;10.70;99.90;;;;;;5054969;28;20184;-74
2023/03/10 10:11:39;;;;;;;3.70;2.80;;;10.60;99.90;;;;;;5073669;28;20219;-74
2023/03/10 10:14:14;;;;;;;4.30;2.93;;;10.70;99.90;;;;;;5073141;28;20694;-75
2023/03/10 10:16:43;;;;;;;6.33;3.03;;;10.70;99.90;;;;;;5073215;28;20229;-74
2023/03/10 10:19:18;;;;;;;4.83;3.03;;;10.80;99.90;;;;;;5055244;28;20263;-73
2023/03/10 10:22:16;;;;;;;3.60;2.80;;;10.80;99.90;;;;;;5073654;28;20630;-74
2023/03/10 10:25:11;;;;;;;5.73;3.00;;;10.90;99.90;;;;;;5073599;28;20650;-74
2023/03/10 10:27:39;;;;;;;3.43;2.70;;;10.80;99.90;;;;;;5072920;28;20684;-74
2023/03/10 10:30:35;;;;;;;4.13;3.27;;;10.80;99.90;;;;;;5073602;28;20172;-74
2023/03/10 10:33:07;;;;;;;4.53;3.27;;;10.90;99.90;;;;;;5066528;28;20181;-73
2023/03/10 10:35:36;;;;;;;3.60;3.10;;;11.00;99.90;;;;;;5073013;28;20173;-74
2023/03/10 10:38:12;;;;;;;3.37;2.70;;;11.10;99.90;;;;;;5073401;28;20210;-74
2023/03/10 10:41:03;;;;;;;3.27;2.43;;;11.20;99.90;;;;;;5073479;28;20171;-74
2023/03/10 10:43:29;;;;;;;3.10;2.70;;;11.20;99.90;;;;;;5073361;28;20199;-74
2023/03/10 10:46:07;;;;;;;3.43;2.30;;;11.20;99.90;;;;;;5073512;28;20218;-74
2023/03/10 10:48:44;;;;;;;3.17;2.17;;;11.30;99.90;;;;;;5073093;28;20164;-73
2023/03/10 10:51:27;;;;;;;2.60;2.40;;;11.30;99.90;;;;;;5054938;28;20252;-74
2023/03/10 10:53:54;;;;;;;2.57;2.40;;;11.40;99.90;;;;;;5073032;28;20179;-74
2023/03/10 10:56:22;;;;;;;2.40;2.20;;;11.40;99.90;;;;;;5055249;28;20252;-73
2023/03/10 10:59:06;;;;;;;2.70;2.50;;;11.40;99.90;;;;;;5072759;28;20244;-75
2023/03/10 11:01:54;;;;;;;3.03;2.73;;;11.40;99.90;;;;;;5072311;28;20187;-73
2023/03/10 11:04:22;;;;;;;3.70;2.47;;;11.60;99.90;;;;;;5072895;28;20183;-73
2023/03/10 11:06:49;;;;;;;3.13;2.30;;;11.70;99.90;;;;;;5072627;28;20172;-74
2023/03/10 11:09:17;;;;;;;3.20;2.63;;;11.60;99.90;;;;;;5072509;28;20627;-74
2023/03/10 11:11:58;;;;;;;2.60;2.40;;;11.70;99.90;;;;;;5072560;28;20255;-73
2023/03/10 11:14:43;;;;;;;3.63;3.00;;;11.70;99.90;;;;;;5072421;28;20220;-74
2023/03/10 11:17:17;;;;;;;2.70;2.50;;;11.90;99.90;;;;;;5072638;28;20196;-73
2023/03/10 11:20:03;;;;;;;3.53;2.63;;;12.00;99.90;;;;;;5072562;28;20159;-74
2023/03/10 11:22:51;;;;;;;3.23;2.93;;;12.20;99.90;;;;;;5072508;28;20653;-74
2023/03/10 11:25:45;;;;;;;2.50;2.30;;;12.50;99.90;;;;;;5072801;28;20619;-74
2023/03/10 11:28:13;;;;;;;3.03;2.83;;;12.40;99.90;;;;;;5072872;28;20161;-74
2023/03/10 11:30:48;;;;;;;2.90;2.70;;;12.40;99.90;;;;;;5072399;28;20511;-74
2023/03/10 11:33:45;;;;;;;2.50;2.33;;;12.40;99.90;;;;;;5073005;28;20160;-74
2023/03/10 11:36:33;;;;;;;1.70;1.60;;;12.20;99.90;;;;;;5072632;28;20164;-74
2023/03/10 11:39:21;;;;;;;1.40;1.30;;;11.50;99.90;;;;;;5072780;28;20189;-74
2023/03/10 11:41:53;;;;;;;2.50;1.27;;;11.00;99.90;;;;;;5072532;28;20623;-74
2023/03/10 11:44:48;;;;;;;1.80;1.70;;;10.70;99.90;;;;;;5072665;28;20172;-74
2023/03/10 11:47:23;;;;;;;2.33;1.50;;;10.50;99.90;;;;;;5034347;28;20185;-73
2023/03/10 11:49:59;;;;;;;3.33;1.50;;;10.30;99.90;;;;;;5072583;28;20652;-74
2023/03/10 11:52:25;;;;;;;3.60;1.80;;;10.10;99.90;;;;;;5054367;28;20256;-74
2023/03/10 11:55:00;;;;;;;2.47;1.63;;;9.90;99.90;;;;;;5072488;28;20204;-74
2023/03/10 11:57:35;;;;;;;2.93;2.10;;;9.80;99.90;;;;;;5055122;28;20207;-72
2023/03/10 12:00:06;;;;;;;4.73;2.40;;;9.70;99.90;;;;;;5076027;28;20168;-74
2023/03/10 12:02:40;;;;;;;3.27;2.30;;;9.80;99.90;;;;;;5076151;28;20635;-73
2023/03/10 12:05:25;;;;;;;1.93;1.60;;;9.70;99.90;;;;;;5058300;28;20640;-73
2023/03/10 12:07:57;;;;;;;5.83;2.30;;;9.60;99.90;;;;;;5076342;28;20180;-74
2023/03/10 12:10:24;;;;;;;2.23;1.90;;;9.60;99.90;;;;;;5075782;28;20200;-73
2023/03/10 12:12:52;;;;;;;2.50;1.90;;;9.50;99.90;;;;;;5075880;28;20579;-74
2023/03/10 12:15:23;;;;;;;2.93;1.97;;;9.40;99.90;;;;;;5075715;28;20586;-74
2023/03/10 12:17:50;;;;;;;2.27;1.90;;;9.40;99.90;;;;;;5058103;28;20218;-73
2023/03/10 12:20:16;;;;;;;2.33;1.97;;;9.40;99.90;;;;;;5075932;28;20173;-74
2023/03/10 12:22:46;;;;;;;1.83;1.70;;;9.50;99.90;;;;;;5075977;28;20165;-74
2023/03/10 12:25:27;;;;;;;2.03;1.80;;;9.50;99.90;;;;;;5075977;28;20160;-73
2023/03/10 12:28:14;;;;;;;1.93;1.83;;;9.40;99.90;;;;;;5075588;28;20165;-74
2023/03/10 12:30:46;;;;;;;2.40;1.77;;;9.40;99.90;;;;;;5057297;28;20173;-75
2023/03/10 12:33:33;;;;;;;2.63;1.70;;;9.40;99.90;;;;;;5075819;28;20169;-74
2023/03/10 12:36:23;;;;;;;2.10;1.90;;;9.40;99.90;;;;;;5074841;28;20200;-74
2023/03/10 12:38:52;;;;;;;2.13;1.90;;;9.30;99.90;;;;;;5057701;28;20571;-75
2023/03/10 12:41:27;;;;;;;2.33;1.80;;;9.30;99.90;;;;;;5057871;28;20565;-74
2023/03/10 12:44:20;;;;;;;2.83;2.13;;;9.40;99.90;;;;;;5074374;28;20230;-74
2023/03/10 12:46:59;;;;;;;2.40;1.80;;;9.40;99.90;;;;;;5075363;28;20702;-74
2023/03/10 12:49:37;;;;;;;1.70;1.60;;;9.40;99.90;;;;;;5075188;28;20194;-73
2023/03/10 12:52:12;;;;;;;2.50;1.83;;;9.30;99.90;;;;;;5075456;28;20172;-74
2023/03/10 12:55:02;;;;;;;2.87;2.07;;;9.20;99.90;;;;;;5075071;28;20172;-73
2023/03/10 12:57:46;;;;;;;4.73;4.10;;;9.20;99.90;;;;;;5074464;28;20270;-74